Alburtis, Pennsylvania
Current Conditions -  °F | °C
As of 12:15 PM on Thursday 30 Oct 2014 (Local Time) from KXLL Reporting Station
Overcast Overcast  
Wind Chill: 12°   Ceiling: 4000
Heat Index: 12°   Visibility: 10mi
Dew Point:   Wind: 10mph
Humidity: 54%   Direction: 350°N
Pressure: 30.04"   Gusts: NA
Location:  40.51°N, 75.6°W
Report Text: KXLL 301615Z AUTO 35009KT 10SM SCT034 OVC040 12/03 A3004 RMK AO2
Loading
Personal Weather Stations






























Interactive Weather Map New forecast layout! Learn more

10-Day Weather Forecast

Advertisements
Track Severe Weather on mobile